Pagina principale
METAR-TAF:

METAR-TAF

Aeroporti :

Olbia, Italia

Aeroporto di Olbia-Costa Smeralda

latitudine: 40-54N, longitudine: 009-31E, altezza: 11 m

Osservazione

Il bollettino è stato emesso 25 minuti fa, alle 11:50 UTC
Vento 20 kt da sud-ovest
Temperature 16°C
Umidità 55%
Pressione 1014 hPa
Visibilità 10 km o più
nessuna nube inferiore a 1500 m e nessun cumulonembo

METAR: LIEO 191150Z 23020KT CAVOK 16/07 Q1014

Ora: 13:15 (12:15 UTC)

Previsione

Il bollettino è stato emesso 1 ora e 15 minuti fa, alle 11:00 UTC
Previsione valida dal 19 alle 12 UTC al 20 alle 12 UTC
Vento 16 kt da ovest/sud-ovest
Visibilità 10 km o più
Poco nuvoloso ad un'altezza di 4000 ft
Evoluzione graduale
dal 20 alle 07 UTC al 20 alle 09 UTC
Vento 10 kt da est/sud-est

TAF: LIEO 191100Z 1912/2012 25016KT 9999 FEW040 BECMG 2007/2009 12010KT

Osservazioni e previsioni meteorologiche di più di 4000 aeroporti (messaggi METAR e TAF).

Le stazioni disponibili sono rappresentate dai dischi gialli e rossi sulla carta.

Puntare il mouse per vedere il nome della stazione.

Clicca sopra per visualizzare le osservazioni e previsioni meteorologiche.

Per cambiare la mappa : fare clic sui pulsanti verdi con una croce nera per ingrandire, il pulsante verde con un trattino per diminuire, o sulla freccia verde per le mappe adiacenti.


METAR-TAF: